Currently 68°F in French Valley, California, USA
68°F
70°F / 61°F
6 mph S
0.00"
Friday, October 20, 2017 4:22 PM PDT

French Valley, California Weather Summary
Last 36 Hours

Temperature Winds Hourly Humidity Dewpoint
Time Report Norm Report Norm Max Gusts Precip. Rpt. Norm Rpt. Norm Pressure
1Fri 04:22 PM  67.9°F  78°F  6 mph S  5 mph  16 mph  0.00"  69%  47%  57°F  55°F  29.98"
Fri 04:00 PM  67.5°F  78°F  11 mph S  5 mph  20 mph  0.00"  71%  45%  57°F  55°F  29.98"
Fri 03:00 PM  69.1°F  79°F  7 mph SW  5 mph  22 mph  0.00"  67%  42%  57°F  54°F  30.00"
Fri 02:00 PM  69.4°F  79°F  7 mph SW  4 mph  21 mph  0.00"  65%  42%  57°F  53°F  30.00"
2Fri 01:31 PM  69.9°F  79°F  8 mph SW  4 mph  15 mph  ----  63%  43%  56°F  53°F  30.00"
Fri 01:00 PM  68.2°F  78°F  6 mph SW  4 mph  18 mph  0.00"  68%  44%  57°F  53°F  30.02"
Fri 12:00 PM  65.4°F  75°F  11 mph S  3 mph  16 mph  0.00"  79%  49%  59°F  54°F  30.04"
Fri 11:00 AM  64.0°F  72°F  5 mph S  3 mph  14 mph  0.00"  82%  56%  58°F  55°F  30.05"
Fri 10:00 AM  62.3°F  68°F  6 mph S  2 mph  10 mph  0.00"  85%  65%  58°F  55°F  30.06"
Fri 09:00 AM  62.2°F  63°F  5 mph SW  1 mph  19 mph  0.00"  82%  74%  56°F  54°F  30.05"
Fri 08:00 AM  61.0°F  59°F  6 mph SW  1 mph  12 mph  0.00"  92%  79%  59°F  53°F  30.05"
3Fri 07:13 AM  60.5°F  58°F  6 mph SW  1 mph  12 mph  ----  91%  81%  58°F  52°F  30.04"
Fri 07:00 AM  60.9°F  58°F  3 mph S  1 mph  10 mph  0.00"  95%  81%  59°F  52°F  30.04"
Fri 06:00 AM  61.5°F  58°F  4 mph S  1 mph  11 mph  0.00"  96%  81%  60°F  52°F  30.03"
Fri 05:00 AM  61.5°F  59°F  8 mph S  1 mph  12 mph  0.00"  96%  80%  60°F  52°F  30.02"
Fri 04:00 AM  61.7°F  59°F  3 mph SE  1 mph  9 mph  0.00"  96%  80%  61°F  53°F  30.01"
Fri 03:00 AM  62.2°F  60°F  1 mph S  1 mph  10 mph  0.00"  96%  79%  61°F  53°F  30.02"
Fri 02:00 AM  62.6°F  60°F  4 mph SW  1 mph  9 mph  0.00"  95%  78%  61°F  53°F  30.03"
Fri 01:00 AM  62.4°F  61°F  6 mph S  calm  10 mph  0.00"  94%  78%  60°F  54°F  30.03"
Fri 12:00 AM  62.9°F  62°F  4 mph S  1 mph  9 mph  0.00"  94%  77%  61°F  54°F  30.02"
Thu 11:00 PM  63.4°F  63°F  5 mph S  1 mph  9 mph  0.00"  94%  76%  62°F  55°F  30.03"
Thu 10:00 PM  63.5°F  64°F  4 mph SW  1 mph  9 mph  0.00"  95%  75%  62°F  55°F  30.02"
Thu 09:00 PM  63.3°F  65°F  4 mph S  2 mph  9 mph  0.00"  95%  73%  62°F  56°F  30.01"
Thu 08:00 PM  62.6°F  67°F  5 mph S  2 mph  9 mph  0.00"  94%  71%  61°F  57°F  30.00"
Thu 07:00 PM  64.7°F  69°F  5 mph S  3 mph  11 mph  0.00"  89%  64%  61°F  56°F  29.99"
Thu 06:00 PM  67.4°F  73°F  7 mph S  5 mph  12 mph  0.00"  82%  57%  62°F  57°F  29.97"
Thu 05:00 PM  70.3°F  77°F  5 mph S  6 mph  11 mph  0.00"  67%  50%  59°F  56°F  29.96"
Thu 04:00 PM  71.4°F  79°F  7 mph S  5 mph  11 mph  0.00"  66%  45%  59°F  55°F  29.96"
Thu 03:00 PM  72.2°F  80°F  4 mph S  5 mph  12 mph  0.00"  66%  42%  60°F  54°F  29.95"
Thu 02:00 PM  72.7°F  80°F  5 mph SW  4 mph  12 mph  0.00"  63%  41%  59°F  53°F  29.96"
Thu 01:00 PM  71.9°F  78°F  8 mph S  4 mph  12 mph  0.00"  63%  43%  58°F  53°F  29.98"
Thu 12:00 PM  72.9°F  76°F  4 mph SW  3 mph  11 mph  0.00"  61%  48%  58°F  54°F  30.00"
Thu 11:00 AM  72.1°F  73°F  3 mph SW  3 mph  8 mph  0.00"  62%  55%  58°F  55°F  30.01"
Thu 10:00 AM  64.7°F  69°F  1 mph S  2 mph  6 mph  0.00"  95%  64%  63°F  55°F  30.02"
Thu 09:00 AM  60.3°F  64°F  1 mph W  1 mph  5 mph  0.00"  98%  73%  60°F  55°F  30.02"
Thu 08:00 AM  59.5°F  59°F  2 mph S  1 mph  6 mph  0.00"  98%  79%  59°F  53°F  30.01"
Thu 07:00 AM  60.5°F  58°F  calm  1 mph  5 mph  0.00"  98%  81%  60°F  52°F  30.01"
Thu 06:00 AM  60.6°F  58°F  2 mph SE  1 mph  4 mph  0.00"  98%  81%  60°F  52°F  30.01"
Thu 05:00 AM  58.4°F  59°F  calm  1 mph  4 mph  0.00"  97%  80%  57°F  53°F  30.00"

  1. Current weather data. No green row appears if the current weather data is also the high or low for the current day.
  2. High temperature for the current day.
  3. Low temperature for the current day.

The French Valley, California weather pages are a service of WeatherCurrents. French Valley is located in southwestern Riverside County, California, north of Temecula, east of Murrieta, and south of Winchester. French Valley is bordered by Lake Skinner.
Copyright ©Fri Oct 20 16:22:58 PDT 2017  WeatherCurrents. All rights reserved. - Submit questions and comments - Privacy Policy

This page automatically refreshes every 10 minutes.